Time;durP1;ratioP1;P1;durP2;ratioP2;P2;SDS_P1;SDS_P2;PMS_P1;PMS_P2;Temp;Humidity;BMP_temperature;BMP_pressure;BME280_temperature;BME280_humidity;BME280_pressure;Samples;Min_cycle;Max_cycle;Signal;HPM_P1;HPM_P2
2021/05/19 00:01:36;;;;;;;4.43;0.97;;;9.90;35.80;;;;;;5072310;28;20422;-75
2021/05/19 00:04:02;;;;;;;1.50;0.97;;;9.90;35.80;;;;;;5072373;28;20747;-75
2021/05/19 00:06:28;;;;;;;2.43;1.43;;;9.90;35.80;;;;;;5072105;28;20462;-75
2021/05/19 00:08:53;;;;;;;1.70;0.90;;;9.90;35.90;;;;;;5071953;28;20783;-75
2021/05/19 00:11:19;;;;;;;1.33;0.80;;;10.00;34.90;;;;;;5054393;28;20262;-74
2021/05/19 00:13:44;;;;;;;2.60;1.00;;;10.00;35.00;;;;;;5072275;28;20639;-75
2021/05/19 00:16:10;;;;;;;2.50;0.90;;;10.00;35.40;;;;;;5072142;28;20208;-75
2021/05/19 00:18:36;;;;;;;2.27;1.10;;;10.00;35.60;;;;;;5054393;28;20231;-74
2021/05/19 00:21:04;;;;;;;1.50;0.87;;;10.00;35.50;;;;;;5071959;28;20584;-75
2021/05/19 00:23:29;;;;;;;1.20;0.70;;;10.00;35.30;;;;;;5071884;28;20460;-75
2021/05/19 00:25:55;;;;;;;1.67;1.03;;;10.00;35.20;;;;;;5072217;28;20465;-75
2021/05/19 00:28:21;;;;;;;1.77;0.73;;;10.00;35.20;;;;;;5072349;28;20216;-72
2021/05/19 00:30:49;;;;;;;3.20;1.43;;;10.10;35.00;;;;;;5072234;28;20587;-75
2021/05/19 00:33:14;;;;;;;1.60;0.90;;;10.10;34.90;;;;;;5053967;28;20430;-75
2021/05/19 00:35:40;;;;;;;1.50;0.70;;;10.10;34.50;;;;;;5071892;28;20441;-75
2021/05/19 00:38:05;;;;;;;2.30;1.03;;;10.10;34.40;;;;;;5054002;28;20178;-75
2021/05/19 00:40:31;;;;;;;1.30;0.70;;;10.10;34.40;;;;;;5053567;28;20215;-72
2021/05/19 00:42:58;;;;;;;1.60;1.07;;;10.10;34.50;;;;;;5071743;28;20177;-75
2021/05/19 00:45:24;;;;;;;1.20;0.80;;;10.00;34.70;;;;;;5071555;28;20206;-75
2021/05/19 00:47:50;;;;;;;2.60;1.00;;;10.00;35.10;;;;;;5071599;28;20897;-75
2021/05/19 00:50:25;;;;;;;1.90;1.10;;;10.00;35.00;;;;;;5071581;28;20504;-75
2021/05/19 00:52:50;;;;;;;1.50;1.00;;;10.00;34.70;;;;;;5071557;28;20867;-75
2021/05/19 00:55:17;;;;;;;1.47;0.70;;;10.00;34.50;;;;;;5071285;28;20413;-75
2021/05/19 00:57:44;;;;;;;1.27;0.80;;;9.90;35.80;;;;;;5071390;28;20787;-75
2021/05/19 01:00:14;;;;;;;2.80;0.90;;;9.90;36.20;;;;;;5070911;28;20462;-75
2021/05/19 01:02:40;;;;;;;1.50;0.80;;;9.90;36.10;;;;;;5071216;28;20425;-75
2021/05/19 01:05:23;;;;;;;1.30;0.77;;;9.90;36.80;;;;;;5070643;28;20413;-74
2021/05/19 01:10:32;;;;;;;1.17;0.67;;;9.80;36.90;;;;;;5071033;28;20530;-75
2021/05/19 01:12:58;;;;;;;1.53;0.97;;;9.80;36.90;;;;;;5053267;28;20502;-75
2021/05/19 01:15:23;;;;;;;1.83;1.20;;;9.80;37.60;;;;;;5071173;28;20199;-74
2021/05/19 01:17:50;;;;;;;1.43;0.80;;;9.80;37.70;;;;;;5071400;28;20183;-75
2021/05/19 01:20:16;;;;;;;1.73;0.93;;;9.80;37.50;;;;;;5071239;28;20702;-74
2021/05/19 01:22:42;;;;;;;1.70;0.80;;;9.80;38.20;;;;;;5071090;28;20803;-75
2021/05/19 01:25:09;;;;;;;1.50;0.97;;;9.80;38.70;;;;;;5070935;28;20841;-75
2021/05/19 01:27:35;;;;;;;1.20;0.80;;;9.80;38.50;;;;;;5070998;28;20769;-75
2021/05/19 01:30:03;;;;;;;1.43;0.90;;;9.80;38.50;;;;;;5070842;28;20416;-74
2021/05/19 01:32:29;;;;;;;3.00;0.90;;;9.90;38.50;;;;;;5052711;28;20475;-75
2021/05/19 01:34:54;;;;;;;1.63;0.87;;;9.80;38.40;;;;;;5070828;28;20446;-75
2021/05/19 01:37:20;;;;;;;2.80;1.27;;;9.80;38.40;;;;;;5070753;28;20853;-75
2021/05/19 01:39:46;;;;;;;1.40;0.93;;;9.90;38.60;;;;;;5052594;28;20258;-75
2021/05/19 01:42:12;;;;;;;1.97;0.80;;;9.90;38.10;;;;;;5070744;28;20694;-74
2021/05/19 01:44:39;;;;;;;2.27;0.83;;;9.90;38.30;;;;;;5052678;28;20417;-73
2021/05/19 01:47:07;;;;;;;1.70;1.03;;;9.90;38.60;;;;;;5070654;28;20922;-75
2021/05/19 01:49:39;;;;;;;1.37;0.93;;;10.00;37.40;;;;;;5070375;28;20897;-75
2021/05/19 01:52:05;;;;;;;2.60;1.07;;;10.00;36.90;;;;;;5053037;28;20943;-73
2021/05/19 01:54:31;;;;;;;2.20;1.10;;;10.00;37.20;;;;;;5070589;28;20414;-72
2021/05/19 01:56:58;;;;;;;1.70;0.90;;;9.90;38.30;;;;;;5070607;28;20436;-74
2021/05/19 01:59:24;;;;;;;2.80;0.87;;;9.90;38.50;;;;;;5052265;28;20446;-74
2021/05/19 02:01:49;;;;;;;3.37;1.13;;;9.80;38.20;;;;;;5070461;28;20445;-74
2021/05/19 02:04:17;;;;;;;1.50;0.90;;;9.80;38.90;;;;;;5070601;28;20451;-73
2021/05/19 02:06:50;;;;;;;2.03;1.17;;;9.90;39.10;;;;;;5070314;28;20213;-72
2021/05/19 02:09:18;;;;;;;2.07;1.40;;;9.80;39.00;;;;;;5052442;28;20937;-73
2021/05/19 02:11:45;;;;;;;1.40;0.83;;;9.80;39.20;;;;;;5070472;28;20420;-73
2021/05/19 02:14:11;;;;;;;1.60;0.90;;;9.80;40.00;;;;;;5052948;28;20423;-73
2021/05/19 02:16:38;;;;;;;1.90;1.00;;;9.80;40.00;;;;;;5072731;28;20423;-71
2021/05/19 02:19:04;;;;;;;2.50;1.20;;;9.80;39.60;;;;;;5056346;28;20414;-73
2021/05/19 02:21:30;;;;;;;1.47;0.80;;;9.80;39.20;;;;;;5056719;28;20475;-73
2021/05/19 02:23:58;;;;;;;4.07;1.07;;;9.80;39.50;;;;;;5074181;28;20413;-74
2021/05/19 02:26:25;;;;;;;3.80;1.23;;;9.80;39.70;;;;;;5074118;28;20422;-76
2021/05/19 02:28:50;;;;;;;1.60;1.00;;;9.80;39.90;;;;;;5073914;28;20414;-74
2021/05/19 02:31:16;;;;;;;3.80;1.17;;;9.80;40.20;;;;;;5056192;28;20505;-74
2021/05/19 02:33:42;;;;;;;1.40;0.90;;;9.90;40.00;;;;;;5074474;28;20296;-74
2021/05/19 02:36:08;;;;;;;5.67;1.07;;;9.80;39.00;;;;;;5073799;28;20242;-73
2021/05/19 02:38:35;;;;;;;1.50;0.83;;;9.90;38.80;;;;;;5055950;28;20258;-72
2021/05/19 02:41:02;;;;;;;1.67;1.10;;;9.80;38.40;;;;;;5055690;28;20215;-74
2021/05/19 02:43:28;;;;;;;1.87;1.20;;;9.80;38.20;;;;;;5073709;28;20404;-73
2021/05/19 02:45:53;;;;;;;2.73;1.57;;;9.80;38.60;;;;;;5073958;28;20984;-73
2021/05/19 02:48:19;;;;;;;3.07;1.50;;;9.80;38.80;;;;;;5055730;28;20414;-74
2021/05/19 02:50:45;;;;;;;1.80;1.53;;;9.80;38.90;;;;;;5055462;28;20225;-71
2021/05/19 02:53:10;;;;;;;1.60;1.17;;;9.80;38.50;;;;;;5073745;28;20181;-73
2021/05/19 02:55:36;;;;;;;3.03;1.60;;;9.80;38.90;;;;;;5055528;28;20197;-73
2021/05/19 02:58:02;;;;;;;2.50;1.07;;;9.80;38.30;;;;;;5074209;28;20176;-70
2021/05/19 03:00:27;;;;;;;3.37;1.20;;;9.80;38.70;;;;;;5073252;28;20347;-73
2021/05/19 03:02:53;;;;;;;7.00;1.63;;;9.70;39.00;;;;;;5073626;28;20248;-74
2021/05/19 03:05:19;;;;;;;3.87;1.60;;;9.80;38.90;;;;;;5073364;28;20663;-74
2021/05/19 03:07:45;;;;;;;1.90;1.10;;;9.80;38.70;;;;;;5073560;28;20174;-73
2021/05/19 03:10:12;;;;;;;3.37;1.20;;;9.80;38.80;;;;;;5073098;28;20173;-73
2021/05/19 03:12:37;;;;;;;3.83;1.30;;;9.80;38.40;;;;;;5073209;28;20425;-74
2021/05/19 03:15:05;;;;;;;2.33;1.70;;;9.80;38.10;;;;;;5073111;28;20410;-73
2021/05/19 03:17:30;;;;;;;2.50;1.37;;;9.90;37.90;;;;;;5055901;28;20193;-73
2021/05/19 03:19:56;;;;;;;2.17;1.50;;;9.90;38.00;;;;;;5073212;28;20452;-72
2021/05/19 03:22:22;;;;;;;1.30;0.80;;;9.80;37.90;;;;;;5073146;28;20258;-74
2021/05/19 03:24:47;;;;;;;1.93;1.23;;;9.80;37.80;;;;;;5055149;28;20208;-73
2021/05/19 03:27:13;;;;;;;4.70;1.43;;;9.80;37.80;;;;;;5072448;28;20201;-73
2021/05/19 03:29:38;;;;;;;2.23;1.33;;;9.80;37.80;;;;;;5072648;28;20178;-73
2021/05/19 03:32:04;;;;;;;1.93;1.30;;;9.70;37.50;;;;;;5073262;28;20257;-73
2021/05/19 03:34:30;;;;;;;2.80;1.70;;;9.70;37.70;;;;;;5072918;28;20615;-73
2021/05/19 03:36:56;;;;;;;6.00;1.43;;;9.70;38.40;;;;;;5054913;28;20433;-73
2021/05/19 03:39:21;;;;;;;1.70;1.10;;;9.60;38.50;;;;;;5072340;28;20413;-73
2021/05/19 03:41:47;;;;;;;1.93;1.40;;;9.60;38.50;;;;;;5072804;28;20196;-73
2021/05/19 03:44:12;;;;;;;1.70;1.13;;;9.60;38.40;;;;;;5054690;28;20227;-72
2021/05/19 03:46:38;;;;;;;1.57;1.27;;;9.70;38.40;;;;;;5054946;28;20223;-76
2021/05/19 03:49:05;;;;;;;1.63;1.27;;;9.70;38.40;;;;;;5072817;28;20204;-73
2021/05/19 03:51:32;;;;;;;2.30;1.70;;;9.70;38.20;;;;;;5073101;28;20180;-73
2021/05/19 03:53:57;;;;;;;2.60;1.57;;;9.70;38.30;;;;;;5072870;28;20500;-73
2021/05/19 03:56:23;;;;;;;4.73;1.80;;;9.80;38.30;;;;;;5072424;28;20920;-73
2021/05/19 03:58:49;;;;;;;1.70;1.00;;;9.80;38.60;;;;;;5072302;28;20598;-72
2021/05/19 04:01:15;;;;;;;2.50;1.13;;;9.70;38.70;;;;;;5072210;28;20449;-71
2021/05/19 04:03:41;;;;;;;5.17;2.23;;;9.70;40.40;;;;;;5054403;28;20179;-72
2021/05/19 04:06:06;;;;;;;2.90;1.20;;;9.70;40.60;;;;;;5071965;28;20213;-70
2021/05/19 04:08:34;;;;;;;1.97;1.50;;;9.60;40.60;;;;;;5072093;28;20172;-72
2021/05/19 04:10:59;;;;;;;3.07;1.90;;;9.60;40.50;;;;;;5071731;28;20187;-73
2021/05/19 04:13:25;;;;;;;4.20;1.80;;;9.50;40.90;;;;;;5072185;28;20413;-71
2021/05/19 04:15:50;;;;;;;1.80;1.50;;;9.50;41.10;;;;;;5072078;28;20207;-72
2021/05/19 04:18:16;;;;;;;1.73;1.00;;;9.50;41.30;;;;;;5054265;28;20756;-71
2021/05/19 04:20:41;;;;;;;1.23;0.90;;;9.50;41.30;;;;;;5071783;28;20206;-71
2021/05/19 04:23:07;;;;;;;1.93;1.20;;;9.40;41.10;;;;;;5071953;28;20591;-72
2021/05/19 04:25:35;;;;;;;1.87;1.50;;;9.50;41.80;;;;;;5053856;28;20227;-72
2021/05/19 04:28:01;;;;;;;1.37;1.27;;;9.50;41.80;;;;;;5071652;28;20191;-74
2021/05/19 04:30:26;;;;;;;1.87;1.40;;;9.50;41.60;;;;;;5071472;28;20456;-71
2021/05/19 04:32:53;;;;;;;4.63;1.87;;;9.50;41.30;;;;;;5071975;28;20178;-71
2021/05/19 04:35:19;;;;;;;2.07;1.57;;;9.50;41.70;;;;;;5071699;28;20172;-71
2021/05/19 04:37:44;;;;;;;1.90;1.30;;;9.60;41.10;;;;;;5071723;28;20916;-72
2021/05/19 04:40:10;;;;;;;2.03;1.43;;;9.70;40.90;;;;;;5070296;28;20675;-72
2021/05/19 04:42:36;;;;;;;1.50;1.13;;;9.70;39.70;;;;;;5053707;28;20175;-72
2021/05/19 04:45:04;;;;;;;1.97;1.47;;;9.70;40.00;;;;;;5071615;28;20878;-72
2021/05/19 04:47:29;;;;;;;2.10;1.40;;;9.70;40.60;;;;;;5071448;28;20168;-71
2021/05/19 04:49:55;;;;;;;2.40;1.50;;;9.80;44.20;;;;;;5071244;28;20409;-72
2021/05/19 04:52:22;;;;;;;3.10;1.60;;;9.80;42.10;;;;;;5071859;28;20223;-72
2021/05/19 04:54:49;;;;;;;1.60;1.20;;;9.80;42.10;;;;;;5053677;28;20181;-72
2021/05/19 04:57:15;;;;;;;1.80;1.53;;;9.80;42.10;;;;;;5054051;28;20452;-73
2021/05/19 04:59:41;;;;;;;3.83;1.17;;;9.90;38.90;;;;;;5071277;28;20949;-72
2021/05/19 05:02:06;;;;;;;3.97;1.70;;;9.90;39.60;;;;;;5054148;28;20468;-73
2021/05/19 05:04:32;;;;;;;1.60;1.20;;;9.90;39.80;;;;;;5071911;28;20237;-72
2021/05/19 05:06:57;;;;;;;1.80;1.50;;;10.00;38.50;;;;;;5071815;28;20211;-72
2021/05/19 05:09:25;;;;;;;3.97;1.80;;;10.10;37.80;;;;;;5070759;28;20171;-72
2021/05/19 05:11:50;;;;;;;1.97;1.40;;;10.10;37.60;;;;;;5071232;28;20213;-71
2021/05/19 05:14:16;;;;;;;3.10;1.80;;;10.20;37.50;;;;;;5072775;28;20480;-71
2021/05/19 05:16:41;;;;;;;5.00;1.40;;;10.30;36.40;;;;;;5055583;28;20204;-71
2021/05/19 05:19:07;;;;;;;3.57;1.87;;;10.30;36.40;;;;;;5071168;28;20181;-72
2021/05/19 05:21:33;;;;;;;2.03;1.60;;;10.40;35.40;;;;;;5071272;28;20580;-71
2021/05/19 05:24:00;;;;;;;6.90;1.33;;;10.40;36.00;;;;;;5070874;28;20216;-72
2021/05/19 05:26:25;;;;;;;1.83;1.33;;;10.40;35.60;;;;;;5070974;28;20429;-72
2021/05/19 05:28:52;;;;;;;1.60;1.37;;;10.40;36.50;;;;;;5070984;28;20889;-72
2021/05/19 05:31:18;;;;;;;2.23;1.40;;;10.50;36.60;;;;;;5053526;28;20230;-72
2021/05/19 05:33:43;;;;;;;3.17;1.80;;;10.50;35.90;;;;;;5065213;28;20432;-72
2021/05/19 05:36:09;;;;;;;2.30;1.90;;;10.60;35.00;;;;;;5049655;28;20210;-72
2021/05/19 05:38:34;;;;;;;2.13;1.53;;;10.70;35.60;;;;;;5051136;28;20687;-69
2021/05/19 05:41:00;;;;;;;2.27;1.70;;;10.70;35.70;;;;;;5044769;28;20212;-70
2021/05/19 05:43:25;;;;;;;2.00;1.43;;;10.80;35.50;;;;;;5051104;28;20170;-70
2021/05/19 05:45:51;;;;;;;2.13;1.50;;;10.80;35.10;;;;;;5050829;28;20278;-72
2021/05/19 05:48:17;;;;;;;1.50;1.13;;;10.90;34.60;;;;;;5051087;28;20170;-71
2021/05/19 05:50:42;;;;;;;2.20;1.80;;;10.90;34.20;;;;;;5054043;28;20182;-70
2021/05/19 05:53:08;;;;;;;2.33;1.80;;;11.00;34.50;;;;;;5037844;28;20243;-71
2021/05/19 05:55:33;;;;;;;2.93;1.83;;;11.10;33.30;;;;;;5056425;28;20209;-70
2021/05/19 05:57:59;;;;;;;2.33;2.00;;;11.20;34.10;;;;;;5077188;28;20532;-73
2021/05/19 06:00:24;;;;;;;5.80;2.37;;;11.40;32.70;;;;;;5075627;28;20288;-73
2021/05/19 06:02:50;;;;;;;2.00;1.57;;;11.40;32.20;;;;;;5076436;28;20538;-73
2021/05/19 06:05:16;;;;;;;1.80;1.50;;;11.50;32.30;;;;;;5075975;28;20174;-72
2021/05/19 06:07:42;;;;;;;2.77;1.83;;;11.70;32.50;;;;;;5043342;28;20278;-73
2021/05/19 06:10:09;;;;;;;2.43;1.80;;;11.90;32.70;;;;;;5067721;28;20432;-73
2021/05/19 06:12:35;;;;;;;1.93;1.50;;;12.00;30.30;;;;;;5038867;28;20537;-71
2021/05/19 06:15:01;;;;;;;4.53;2.30;;;12.10;30.00;;;;;;5058491;28;20518;-72
2021/05/19 06:17:26;;;;;;;4.70;1.53;;;12.20;29.20;;;;;;5067379;28;20685;-72
2021/05/19 06:19:52;;;;;;;1.93;1.40;;;12.40;29.80;;;;;;5075429;28;20538;-72
2021/05/19 06:22:18;;;;;;;8.20;2.30;;;12.60;29.70;;;;;;5059979;28;20191;-72
2021/05/19 06:24:44;;;;;;;4.77;2.63;;;13.00;28.30;;;;;;5038150;28;20936;-70
2021/05/19 06:27:11;;;;;;;9.23;2.70;;;14.20;27.70;;;;;;5052124;28;20327;-73
2021/05/19 06:29:36;;;;;;;3.43;2.80;;;16.10;23.70;;;;;;5065131;28;20169;-72
2021/05/19 06:32:02;;;;;;;2.60;2.40;;;16.30;23.80;;;;;;5077117;28;20515;-72
2021/05/19 06:34:28;;;;;;;3.10;2.90;;;17.60;19.30;;;;;;5052679;28;20666;-75
2021/05/19 06:36:53;;;;;;;3.17;2.97;;;18.70;18.40;;;;;;5059152;28;20194;-73
2021/05/19 06:39:21;;;;;;;3.20;3.00;;;19.40;16.30;;;;;;5076833;28;20195;-73
2021/05/19 06:41:48;;;;;;;3.40;3.20;;;20.00;13.90;;;;;;5076701;28;20253;-71
2021/05/19 06:44:15;;;;;;;3.90;3.60;;;20.70;14.80;;;;;;5075259;28;20408;-73
2021/05/19 06:46:41;;;;;;;4.57;4.13;;;21.40;13.60;;;;;;5072047;28;20428;-71
2021/05/19 06:49:07;;;;;;;4.33;4.03;;;21.70;11.90;;;;;;5075956;28;20408;-72
2021/05/19 06:51:33;;;;;;;4.40;4.20;;;21.90;12.20;;;;;;5058957;28;20785;-73
2021/05/19 06:53:59;;;;;;;3.97;3.77;;;22.50;10.50;;;;;;5075651;28;20412;-72
2021/05/19 06:56:25;;;;;;;4.00;3.80;;;23.00;9.60;;;;;;5075964;28;20186;-71
2021/05/19 06:58:51;;;;;;;4.60;4.10;;;22.90;11.20;;;;;;5057348;28;20933;-71
2021/05/19 07:01:16;;;;;;;4.57;4.20;;;22.90;9.60;;;;;;5070443;28;20520;-71
2021/05/19 07:03:42;;;;;;;4.63;4.43;;;22.20;10.40;;;;;;5059461;28;20425;-72
2021/05/19 07:06:08;;;;;;;4.60;4.40;;;21.30;10.90;;;;;;5061835;28;20206;-73
2021/05/19 07:08:33;;;;;;;5.00;4.70;;;21.00;12.20;;;;;;5077555;28;20539;-73
2021/05/19 07:10:59;;;;;;;4.57;4.37;;;21.30;10.90;;;;;;5077172;28;20181;-72
2021/05/19 07:13:28;;;;;;;13.63;5.20;;;21.10;11.40;;;;;;5078111;28;20243;-72
2021/05/19 07:15:57;;;;;;;5.00;4.60;;;20.10;11.30;;;;;;5067206;28;20207;-69
2021/05/19 07:18:23;;;;;;;5.40;5.10;;;19.60;12.20;;;;;;5079583;28;20463;-73
2021/05/19 07:20:49;;;;;;;5.63;5.20;;;18.70;16.40;;;;;;5078045;28;20459;-73
2021/05/19 07:23:15;;;;;;;4.80;4.60;;;18.60;13.80;;;;;;5078093;28;20635;-72
2021/05/19 07:25:41;;;;;;;4.60;4.40;;;18.70;15.40;;;;;;5077685;28;20427;-73
2021/05/19 07:28:08;;;;;;;5.33;5.03;;;18.90;13.80;;;;;;5074104;28;20423;-70
2021/05/19 07:30:35;;;;;;;5.40;5.10;;;18.90;14.30;;;;;;5072711;28;20424;-70
2021/05/19 07:33:00;;;;;;;5.50;5.27;;;18.90;15.00;;;;;;5072965;28;20452;-70
2021/05/19 07:35:27;;;;;;;6.07;5.67;;;18.70;14.10;;;;;;5072959;28;20513;-71
2021/05/19 07:37:53;;;;;;;5.40;5.20;;;;;;;;;;5054820;28;20651;-71
2021/05/19 07:40:21;;;;;;;6.10;5.80;;;17.90;14.60;;;;;;5072396;28;20865;-70
2021/05/19 07:42:46;;;;;;;5.80;5.50;;;;;;;;;;5072924;28;20871;-71
2021/05/19 07:45:13;;;;;;;5.67;5.37;;;;;;;;;;5072580;28;20440;-70
2021/05/19 07:47:39;;;;;;;5.10;4.90;;;;;;;;;;5072604;28;20412;-71
2021/05/19 07:50:05;;;;;;;6.03;5.50;;;;;;;;;;5072383;28;20420;-71
2021/05/19 07:52:30;;;;;;;5.70;5.33;;;17.30;17.10;;;;;;5072736;28;20502;-70
2021/05/19 07:54:56;;;;;;;6.00;5.60;;;15.60;18.60;;;;;;5072371;28;20515;-71
2021/05/19 07:57:25;;;;;;;5.07;4.87;;;15.40;19.10;;;;;;5072410;28;20199;-69
2021/05/19 08:00:07;;;;;;;5.40;5.10;;;15.30;19.30;;;;;;5072142;28;20247;-71
2021/05/19 08:02:33;;;;;;;5.00;4.63;;;15.10;20.10;;;;;;5072451;28;20420;-71
2021/05/19 08:04:58;;;;;;;8.80;6.00;;;16.00;19.80;;;;;;5054493;28;20424;-71
2021/05/19 08:07:24;;;;;;;5.97;5.77;;;17.20;17.30;;;;;;5072148;28;20216;-70
2021/05/19 08:09:49;;;;;;;6.33;6.00;;;17.90;15.10;;;;;;5054365;28;20396;-70
2021/05/19 08:12:15;;;;;;;6.07;5.77;;;18.60;15.60;;;;;;5072320;28;20185;-70
2021/05/19 08:14:40;;;;;;;6.60;6.30;;;19.50;14.30;;;;;;5054707;28;20189;-71
2021/05/19 08:17:06;;;;;;;6.80;6.50;;;19.70;13.40;;;;;;5072245;28;20276;-69
2021/05/19 08:19:31;;;;;;;7.23;6.83;;;19.30;13.30;;;;;;5053902;28;20182;-70
2021/05/19 08:21:57;;;;;;;7.27;6.77;;;18.70;13.50;;;;;;5072227;28;20170;-70
2021/05/19 08:24:22;;;;;;;6.80;6.40;;;18.50;14.40;;;;;;5071810;28;20177;-70
2021/05/19 08:26:48;;;;;;;6.97;6.57;;;18.70;14.40;;;;;;5047951;28;20582;-70
2021/05/19 08:29:13;;;;;;;6.83;6.50;;;19.50;13.70;;;;;;5056722;28;20217;-71
2021/05/19 08:31:39;;;;;;;6.83;6.53;;;20.40;10.90;;;;;;5053230;28;20568;-70
2021/05/19 08:34:04;;;;;;;7.10;6.80;;;21.30;9.80;;;;;;5071943;28;20178;-71
2021/05/19 08:36:32;;;;;;;9.80;7.77;;;21.40;8.50;;;;;;5068324;28;20198;-70
2021/05/19 08:38:58;;;;;;;7.73;7.40;;;20.60;11.20;;;;;;5065853;28;20240;-69
2021/05/19 08:41:23;;;;;;;9.63;7.20;;;20.50;11.10;;;;;;5053667;28;21000;-70
2021/05/19 08:43:49;;;;;;;8.50;8.10;;;20.60;9.00;;;;;;5071569;28;20413;-71
2021/05/19 08:46:14;;;;;;;8.80;8.40;;;19.70;10.40;;;;;;5071435;28;20205;-72
2021/05/19 08:48:43;;;;;;;8.73;8.33;;;18.90;11.30;;;;;;5052921;28;20189;-70
2021/05/19 08:51:08;;;;;;;8.97;8.47;;;18.20;12.40;;;;;;5071393;28;20174;-70
2021/05/19 08:53:35;;;;;;;7.37;7.07;;;17.70;13.20;;;;;;5071376;28;20435;-70
2021/05/19 08:56:10;;;;;;;7.50;7.20;;;17.20;14.60;;;;;;5068264;28;20435;-70
2021/05/19 08:58:37;;;;;;;8.47;7.97;;;16.80;15.30;;;;;;5033326;28;20420;-70
2021/05/19 09:01:03;;;;;;;7.37;7.07;;;16.60;15.00;;;;;;5049856;28;20468;-70
2021/05/19 09:03:33;;;;;;;7.03;6.63;;;16.60;15.70;;;;;;5058809;28;20425;-70
2021/05/19 09:05:59;;;;;;;8.00;7.67;;;16.60;14.20;;;;;;5061170;28;20452;-70
2021/05/19 09:08:24;;;;;;;8.53;7.93;;;16.60;14.20;;;;;;5050059;28;20483;-70
2021/05/19 09:11:03;;;;;;;8.40;8.10;;;16.60;14.20;;;;;;5049362;28;20655;-71
2021/05/19 09:13:55;;;;;;;9.23;8.63;;;16.60;14.60;;;;;;5048543;28;20249;-71
2021/05/19 09:16:31;;;;;;;8.40;8.00;;;16.80;15.00;;;;;;5062844;28;20828;-71
2021/05/19 09:18:58;;;;;;;9.37;8.47;;;16.90;15.80;;;;;;5056385;28;20431;-70
2021/05/19 09:21:32;;;;;;;8.20;7.90;;;16.70;14.30;;;;;;5061248;28;20471;-72
2021/05/19 09:24:00;;;;;;;7.37;7.07;;;;;;;;;;5049339;28;20515;-71
2021/05/19 09:26:26;;;;;;;7.97;7.60;;;16.40;15.60;;;;;;5047641;28;20615;-70
2021/05/19 09:28:51;;;;;;;8.00;7.70;;;15.70;15.10;;;;;;5066917;28;20986;-70
2021/05/19 09:31:21;;;;;;;7.67;7.27;;;15.30;16.00;;;;;;5041412;28;20181;-70
2021/05/19 09:33:51;;;;;;;8.23;7.63;;;15.20;16.70;;;;;;5047045;28;20200;-70
2021/05/19 09:36:20;;;;;;;7.50;7.10;;;15.00;17.10;;;;;;5046614;28;20448;-70
2021/05/19 09:38:49;;;;;;;8.57;8.17;;;15.10;17.40;;;;;;5060699;28;20430;-71
2021/05/19 09:41:16;;;;;;;7.90;7.50;;;15.20;16.30;;;;;;5066077;28;20466;-71
2021/05/19 09:43:42;;;;;;;7.13;6.73;;;15.30;16.40;;;;;;5067250;28;20836;-70
2021/05/19 09:46:21;;;;;;;7.73;7.43;;;15.40;15.70;;;;;;5066457;28;20439;-71
2021/05/19 09:48:48;;;;;;;8.73;7.77;;;15.60;15.50;;;;;;5066407;28;20261;-71
2021/05/19 09:51:26;;;;;;;7.03;6.73;;;16.00;15.90;;;;;;5066568;28;20790;-71
2021/05/19 09:53:52;;;;;;;7.83;7.50;;;16.30;15.40;;;;;;5046671;28;20789;-71
2021/05/19 09:56:18;;;;;;;8.37;7.90;;;16.80;14.30;;;;;;5046970;28;20437;-70
2021/05/19 09:58:46;;;;;;;7.57;7.27;;;17.10;13.80;;;;;;5046408;28;20425;-70
2021/05/19 10:01:12;;;;;;;9.00;8.40;;;17.10;13.60;;;;;;5046385;28;20260;-70
2021/05/19 10:03:38;;;;;;;7.57;7.27;;;16.80;12.50;;;;;;5065901;28;20426;-70
2021/05/19 10:06:15;;;;;;;8.83;8.53;;;16.80;12.70;;;;;;5054630;28;20464;-70
2021/05/19 10:08:41;;;;;;;8.37;8.00;;;17.10;10.40;;;;;;5060383;28;20416;-70
2021/05/19 10:11:07;;;;;;;8.77;8.37;;;17.30;12.20;;;;;;5068704;28;20539;-70
2021/05/19 10:13:34;;;;;;;9.37;8.70;;;17.40;10.90;;;;;;5069707;28;20427;-70
2021/05/19 10:16:06;;;;;;;9.17;8.77;;;17.50;10.90;;;;;;5070427;28;20439;-71
2021/05/19 10:18:39;;;;;;;10.60;8.90;;;17.60;12.90;;;;;;5070192;28;20978;-72
2021/05/19 10:21:15;;;;;;;9.50;9.10;;;17.70;12.10;;;;;;5070225;28;20462;-72
2021/05/19 10:24:03;;;;;;;9.93;9.53;;;18.00;12.80;;;;;;5033334;28;20933;-72
2021/05/19 10:26:30;;;;;;;10.00;9.60;;;18.10;11.40;;;;;;5050218;28;20437;-71
2021/05/19 10:28:56;;;;;;;10.73;10.23;;;17.80;11.50;;;;;;5050224;28;20413;-72
2021/05/19 10:31:29;;;;;;;9.47;9.13;;;17.40;10.70;;;;;;5050423;28;20834;-72
2021/05/19 10:34:18;;;;;;;9.00;8.70;;;17.00;10.20;;;;;;5037972;28;20188;-73
2021/05/19 10:36:44;;;;;;;9.90;9.40;;;16.90;12.20;;;;;;5035053;28;20487;-73
2021/05/19 10:39:09;;;;;;;10.10;9.73;;;16.80;10.20;;;;;;5035033;28;20436;-70
2021/05/19 10:41:47;;;;;;;10.83;10.00;;;16.80;8.60;;;;;;5054954;28;20737;-71
2021/05/19 10:44:17;;;;;;;9.73;9.33;;;16.60;9.70;;;;;;5071843;28;20585;-71
2021/05/19 10:46:51;;;;;;;9.10;8.53;;;16.70;11.90;;;;;;5053690;28;20806;-71
2021/05/19 10:49:18;;;;;;;9.70;9.20;;;17.00;11.20;;;;;;5035618;28;20936;-71
2021/05/19 10:52:00;;;;;;;10.33;9.83;;;17.00;11.30;;;;;;5055737;28;21113;-70
2021/05/19 10:57:31;;;;;;;11.00;10.20;;;17.10;7.80;;;;;;5054546;28;20436;-71
2021/05/19 11:00:13;;;;;;;10.30;9.90;;;17.10;6.20;;;;;;5053898;28;20857;-71
2021/05/19 11:03:05;;;;;;;10.80;10.30;;;17.00;6.60;;;;;;5062474;28;20473;-71
2021/05/19 11:05:36;;;;;;;10.57;10.17;;;17.30;8.60;;;;;;5072009;28;20802;-72
2021/05/19 11:08:13;;;;;;;10.60;10.20;;;17.80;6.40;;;;;;5121481;22;20555;-71
2021/05/19 11:10:41;;;;;;;10.73;10.33;;;18.10;6.30;;;;;;5114643;28;20398;-71
2021/05/19 11:13:08;;;;;;;10.60;10.20;;;18.20;6.30;;;;;;5114552;28;20418;-72
2021/05/19 11:16:01;;;;;;;10.80;10.27;;;18.30;6.20;;;;;;5114346;28;20414;-71
2021/05/19 11:20:54;;;;;;;11.17;10.77;;;18.00;3.50;;;;;;5094507;28;20458;-72
2021/05/19 11:23:20;;;;;;;11.30;10.90;;;17.50;3.60;;;;;;5061985;28;20424;-72
2021/05/19 11:25:46;;;;;;;11.90;11.50;;;17.10;5.20;;;;;;5076282;28;20507;-72
2021/05/19 11:28:14;;;;;;;11.97;11.50;;;17.10;5.60;;;;;;5056141;28;20200;-72
2021/05/19 11:30:40;;;;;;;12.20;11.80;;;17.10;4.50;;;;;;5073796;28;20416;-72
2021/05/19 11:33:09;;;;;;;11.90;11.50;;;;;;;;;;5069414;28;20430;-72
2021/05/19 11:35:38;;;;;;;12.20;11.57;;;;;;;;;;5076356;28;20407;-72
2021/05/19 11:38:09;;;;;;;12.23;11.83;;;;;;;;;;5093920;28;20466;-72
2021/05/19 11:40:45;;;;;;;13.17;12.60;;;;;;;;;;5093783;28;20485;-72
2021/05/19 11:43:12;;;;;;;12.20;11.80;;;;;;;;;;5093717;28;20431;-72
2021/05/19 11:45:40;;;;;;;12.60;11.80;;;;;;;;;;5084774;28;20475;-72
2021/05/19 11:48:17;;;;;;;11.93;11.43;;;;;;;;;;5073368;28;20451;-71
2021/05/19 11:50:43;;;;;;;12.23;11.83;;;;;;;;;;5078409;28;20428;-71
2021/05/19 11:53:10;;;;;;;12.17;11.77;;;;;;;;;;5092852;28;20419;-71
2021/05/19 11:56:02;;;;;;;12.13;11.73;;;18.40;1.80;;;;;;5093425;28;20414;-72
2021/05/19 11:58:35;;;;;;;12.10;11.70;;;18.30;3.40;;;;;;5051050;28;20824;-71
2021/05/19 12:01:06;;;;;;;12.70;12.20;;;18.30;2.40;;;;;;5073753;28;21028;-71
2021/05/19 12:03:33;;;;;;;12.37;11.77;;;18.30;3.20;;;;;;5073503;28;20455;-72
2021/05/19 12:06:07;;;;;;;12.60;12.10;;;18.40;3.30;;;;;;5073999;28;20474;-71
2021/05/19 12:08:38;;;;;;;13.00;12.50;;;17.90;1.70;;;;;;5073323;28;20428;-72
2021/05/19 12:11:17;;;;;;;13.30;12.80;;;17.80;2.70;;;;;;5064139;28;20416;-72
2021/05/19 12:13:53;;;;;;;13.00;12.50;;;17.50;3.20;;;;;;5088528;28;20423;-72
2021/05/19 12:16:30;;;;;;;12.73;12.23;;;17.40;2.90;;;;;;5089375;28;21155;-72
2021/05/19 12:19:09;;;;;;;12.23;11.83;;;17.20;2.90;;;;;;5087871;28;20460;-74
2021/05/19 12:21:36;;;;;;;12.60;12.10;;;17.40;3.00;;;;;;5086982;28;21033;-73
2021/05/19 12:24:02;;;;;;;13.47;12.87;;;17.70;2.00;;;;;;5088382;28;20431;-72
2021/05/19 12:26:28;;;;;;;12.57;12.07;;;17.60;1.30;;;;;;5088629;28;20438;-73
2021/05/19 12:28:54;;;;;;;13.33;12.73;;;17.70;2.20;;;;;;5086843;28;20415;-74
2021/05/19 12:31:35;;;;;;;12.77;12.17;;;17.70;1.30;;;;;;5072975;28;20432;-74
2021/05/19 12:34:14;;;;;;;11.87;11.40;;;17.60;1.00;;;;;;5067521;28;20455;-74
2021/05/19 12:36:41;;;;;;;12.43;11.83;;;17.80;1.90;;;;;;5067731;28;20474;-73
2021/05/19 12:39:10;;;;;;;12.10;11.60;;;18.20;1.20;;;;;;5071719;28;20415;-74
2021/05/19 12:41:44;;;;;;;12.67;11.90;;;18.60;2.00;;;;;;5087113;28;20478;-73
2021/05/19 12:44:15;;;;;;;12.30;11.80;;;18.70;2.30;;;;;;5080575;28;20438;-73
2021/05/19 12:47:02;;;;;;;12.10;11.70;;;18.80;1.50;;;;;;5078139;28;20436;-73
2021/05/19 12:49:31;;;;;;;12.33;11.87;;;18.50;1.00;;;;;;5066670;28;20465;-73
2021/05/19 12:52:14;;;;;;;12.40;11.90;;;18.60;1.70;;;;;;5066785;28;20507;-73
2021/05/19 12:54:39;;;;;;;12.83;12.23;;;18.80;1.60;;;;;;5049683;28;20452;-73
2021/05/19 12:57:11;;;;;;;12.67;12.17;;;19.00;1.50;;;;;;5065417;28;20466;-73
2021/05/19 12:59:59;;;;;;;12.17;11.70;;;19.10;1.50;;;;;;5085922;28;20220;-75
2021/05/19 13:02:35;;;;;;;12.80;12.30;;;19.30;1.80;;;;;;5083981;28;20416;-74
2021/05/19 13:05:01;;;;;;;13.23;12.73;;;19.30;2.50;;;;;;5064787;28;20436;-74